Time,TemperatureF,DewpointF,PressureIn,WindDirection,WindDirectionDegrees,WindSpeedMPH,WindSpeedGustMPH,Humidity,HourlyPrecipIn,Conditions,Clouds,dailyrainin,SolarRadiationWatts/m^2,SoftwareType,DateUTC
2013-03-19 00:02:00,23.2,15.2,29.88,WNW,291,20.7,20.7,71,0.00,RA,,0.00,0.0,WeatherDisplay:10.37,2013-03-19 05:02:00,
2013-03-19 00:07:00,23.1,15.4,29.88,NW,305,17.3,17.3,72,0.00,RA,,0.00,0.0,WeatherDisplay:10.37,2013-03-19 05:07:00,
2013-03-19 00:12:00,23.2,15.5,29.88,WNW,299,20.7,20.7,72,0.00,OVC,,0.00,0.0,WeatherDisplay:10.37,2013-03-19 05:12:00,
2013-03-19 00:17:00,23.2,15.2,29.88,WNW,292,21.9,21.9,71,0.00,OVC,,0.00,0.0,WeatherDisplay:10.37,2013-03-19 05:17:00,
2013-03-19 00:22:00,23.3,14.0,29.87,West,273,23.0,23.0,67,0.00,OVC,,0.00,0.0,WeatherDisplay:10.37,2013-03-19 05:22:00,
2013-03-19 00:27:00,23.1,14.1,29.87,West,266,22.0,22.0,68,0.00,OVC,,0.00,0.0,WeatherDisplay:10.37,2013-03-19 05:27:00,
2013-03-19 00:32:00,23.0,14.0,29.87,West,267,21.9,21.9,68,0.00,OVC,,0.00,0.0,WeatherDisplay:10.37,2013-03-19 05:32:00,
2013-03-19 00:37:00,22.9,14.2,29.87,SW,235,18.4,18.4,69,0.00,OVC,,0.00,0.0,WeatherDisplay:10.37,2013-03-19 05:37:00,
2013-03-19 00:42:00,22.9,14.6,29.87,West,263,16.1,16.1,70,0.00,OVC,,0.00,0.0,WeatherDisplay:10.37,2013-03-19 05:42:00,
2013-03-19 00:47:00,22.8,14.5,29.87,West,273,24.2,24.2,70,0.00,OVC,,0.00,0.0,WeatherDisplay:10.37,2013-03-19 05:47:00,
2013-03-19 00:53:00,22.8,14.8,29.88,WSW,249,13.8,13.8,71,0.00,OVC,,0.00,0.0,WeatherDisplay:10.37,2013-03-19 05:53:00,
2013-03-19 00:58:00,22.9,14.9,29.88,West,275,19.6,19.6,71,0.00,OVC,,0.00,0.0,WeatherDisplay:10.37,2013-03-19 05:58:00,
2013-03-19 01:03:00,23.0,15.0,29.88,WSW,242,20.7,20.7,71,0.00,OVC,,0.00,0.0,WeatherDisplay:10.37,2013-03-19 06:03:00,
2013-03-19 01:08:00,23.1,15.1,29.88,WSW,252,19.6,19.6,71,0.00,OVC,,0.00,0.0,WeatherDisplay:10.37,2013-03-19 06:08:00,
2013-03-19 01:13:00,23.1,15.1,29.88,West,277,20.7,20.7,71,0.00,OVC,,0.00,0.0,WeatherDisplay:10.37,2013-03-19 06:13:00,
2013-03-19 01:18:00,23.1,15.4,29.88,WNW,299,19.6,19.6,72,0.00,OVC,,0.00,0.0,WeatherDisplay:10.37,2013-03-19 06:18:00,
2013-03-19 01:23:00,23.1,15.7,29.88,West,268,15.0,15.0,73,0.00,OVC,,0.00,0.0,WeatherDisplay:10.37,2013-03-19 06:23:00,
2013-03-19 01:28:00,23.1,15.7,29.88,WSW,238,19.6,19.6,73,0.00,OVC,,0.00,0.0,WeatherDisplay:10.37,2013-03-19 06:28:00,
2013-03-19 01:33:00,23.1,16.0,29.88,West,265,19.6,19.6,74,0.00,OVC,,0.00,0.0,WeatherDisplay:10.37,2013-03-19 06:33:00,
2013-03-19 01:38:00,23.1,16.4,29.88,WNW,292,13.0,13.0,75,0.00,OVC,,0.00,0.0,WeatherDisplay:10.37,2013-03-19 06:38:00,
2013-03-19 01:43:00,23.1,16.4,29.88,WNW,286,12.7,12.7,75,0.00,OVC,,0.00,0.0,WeatherDisplay:10.37,2013-03-19 06:43:00,
2013-03-19 01:48:00,23.1,16.4,29.88,WSW,237,16.1,16.1,75,0.00,OVC,,0.00,0.0,WeatherDisplay:10.37,2013-03-19 06:48:00,
2013-03-19 01:53:00,23.0,15.9,29.88,West,267,21.9,21.9,74,0.00,OVC,,0.00,0.0,WeatherDisplay:10.37,2013-03-19 06:53:00,
2013-03-19 01:58:00,22.8,14.8,29.88,West,261,15.0,15.0,71,0.00,OVC,,0.00,0.0,WeatherDisplay:10.37,2013-03-19 06:58:00,
2013-03-19 02:03:00,22.6,14.3,29.88,West,262,24.2,24.2,70,0.00,OVC,,0.00,0.0,WeatherDisplay:10.37,2013-03-19 07:03:00,
2013-03-19 02:08:00,22.4,14.1,29.88,West,262,19.6,19.6,70,0.00,OVC,,0.00,0.0,WeatherDisplay:10.37,2013-03-19 07:08:00,
2013-03-19 02:13:00,22.2,14.2,29.88,WNW,288,16.1,16.1,71,0.00,OVC,,0.00,0.0,WeatherDisplay:10.37,2013-03-19 07:13:00,
2013-03-19 02:18:00,22.0,14.0,29.88,WSW,246,13.0,13.0,71,0.00,OVC,,0.00,0.0,WeatherDisplay:10.37,2013-03-19 07:18:00,
2013-03-19 02:23:00,21.8,13.8,29.88,West,275,15.0,15.0,71,0.00,OVC,,0.00,0.0,WeatherDisplay:10.37,2013-03-19 07:23:00,
2013-03-19 02:28:00,21.6,13.6,29.88,WNW,298,17.3,17.3,71,0.00,OVC,,0.00,0.0,WeatherDisplay:10.37,2013-03-19 07:28:00,
2013-03-19 02:33:00,21.5,13.9,29.88,WNW,290,11.5,11.5,72,0.00,SCT,,0.00,0.0,WeatherDisplay:10.37,2013-03-19 07:33:00,
2013-03-19 02:38:00,21.4,13.8,29.88,West,263,11.5,11.5,72,0.00,SCT,,0.00,0.0,WeatherDisplay:10.37,2013-03-19 07:38:00,
2013-03-19 02:43:00,21.3,13.7,29.88,West,260,11.5,11.5,72,0.00,SCT,,0.00,0.0,WeatherDisplay:10.37,2013-03-19 07:43:00,
2013-03-19 02:48:00,21.2,13.9,29.88,WSW,257,11.5,11.5,73,0.00,CLR,,0.00,0.0,WeatherDisplay:10.37,2013-03-19 07:48:00,
2013-03-19 02:53:00,21.2,13.9,29.88,West,259,11.5,11.5,73,0.00,CLR,,0.00,0.0,WeatherDisplay:10.37,2013-03-19 07:53:00,
2013-03-19 02:58:00,21.1,14.1,29.88,WSW,246,9.2,9.2,74,0.00,CLR,,0.00,0.0,WeatherDisplay:10.37,2013-03-19 07:58:00,
2013-03-19 03:03:00,21.0,14.0,29.88,West,280,10.0,10.0,74,0.00,CLR,,0.00,0.0,WeatherDisplay:10.37,2013-03-19 08:03:00,
2013-03-19 03:08:00,21.0,13.7,29.88,West,269,11.5,11.5,73,0.00,CLR,,0.00,0.0,WeatherDisplay:10.37,2013-03-19 08:08:00,
2013-03-19 03:13:00,20.9,13.6,29.88,West,272,19.6,19.6,73,0.00,CLR,,0.00,0.0,WeatherDisplay:10.37,2013-03-19 08:13:00,
2013-03-19 03:18:00,20.9,13.6,29.88,WSW,248,11.5,11.5,73,0.00,CLR,,0.00,0.0,WeatherDisplay:10.37,2013-03-19 08:18:00,
2013-03-19 03:23:00,20.9,13.9,29.89,WSW,254,12.7,12.7,74,0.00,CLR,,0.00,0.0,WeatherDisplay:10.37,2013-03-19 08:23:00,
2013-03-19 03:28:00,20.9,13.6,29.89,WSW,248,16.1,16.1,73,0.00,CLR,,0.00,0.0,WeatherDisplay:10.37,2013-03-19 08:28:00,
2013-03-19 03:33:00,21.0,13.7,29.90,WNW,294,18.4,18.4,73,0.00,CLR,,0.00,0.0,WeatherDisplay:10.37,2013-03-19 08:33:00,
2013-03-19 03:38:00,21.1,14.1,29.90,WSW,245,13.8,13.8,74,0.00,CLR,,0.00,0.0,WeatherDisplay:10.37,2013-03-19 08:38:00,
2013-03-19 03:43:00,21.1,14.1,29.90,West,271,18.4,18.4,74,0.00,CLR,,0.00,0.0,WeatherDisplay:10.37,2013-03-19 08:43:00,
2013-03-19 03:48:00,21.2,14.2,29.90,West,266,17.3,17.3,74,0.00,CLR,,0.00,0.0,WeatherDisplay:10.37,2013-03-19 08:48:00,
2013-03-19 03:54:00,21.1,14.1,29.90,WSW,240,15.0,15.0,74,0.00,CLR,,0.00,0.0,WeatherDisplay:10.37,2013-03-19 08:54:00,
2013-03-19 03:59:00,21.2,14.2,29.90,West,259,19.6,19.6,74,0.00,CLR,,0.00,0.0,WeatherDisplay:10.37,2013-03-19 08:59:00,
2013-03-19 04:04:00,21.3,14.3,29.89,West,269,19.6,19.6,74,0.00,SCT,,0.00,0.0,WeatherDisplay:10.37,2013-03-19 09:04:00,
2013-03-19 04:09:00,21.3,14.3,29.89,West,277,17.3,17.3,74,0.00,SCT,,0.00,0.0,WeatherDisplay:10.37,2013-03-19 09:09:00,
2013-03-19 04:14:00,21.3,14.3,29.89,WSW,257,19.6,19.6,74,0.00,SCT,,0.00,0.0,WeatherDisplay:10.37,2013-03-19 09:14:00,
2013-03-19 04:19:00,21.1,13.8,29.89,West,267,24.2,24.2,73,0.00,OVC,,0.00,0.0,WeatherDisplay:10.37,2013-03-19 09:19:00,
2013-03-19 04:24:00,20.9,13.6,29.89,WSW,247,19.6,19.6,73,0.00,OVC,,0.00,0.0,WeatherDisplay:10.37,2013-03-19 09:24:00,
2013-03-19 04:29:00,20.8,13.2,29.90,West,269,20.7,20.7,72,0.00,OVC,,0.00,0.0,WeatherDisplay:10.37,2013-03-19 09:29:00,
2013-03-19 04:34:00,20.7,13.4,29.90,WSW,246,15.0,15.0,73,0.00,BKN,,0.00,0.0,WeatherDisplay:10.37,2013-03-19 09:34:00,
2013-03-19 04:39:00,20.5,13.2,29.90,WSW,254,18.4,18.4,73,0.00,BKN,,0.00,0.0,WeatherDisplay:10.37,2013-03-19 09:39:00,
2013-03-19 04:44:00,20.4,13.4,29.90,WSW,246,16.1,16.1,74,0.00,BKN,,0.00,0.0,WeatherDisplay:10.37,2013-03-19 09:44:00,
2013-03-19 04:49:00,20.3,13.3,29.90,WSW,243,12.7,12.7,74,0.00,BKN,,0.00,0.0,WeatherDisplay:10.37,2013-03-19 09:49:00,
2013-03-19 04:54:00,20.3,13.3,29.90,WSW,240,20.7,20.7,74,0.00,BKN,,0.00,0.0,WeatherDisplay:10.37,2013-03-19 09:54:00,
2013-03-19 04:59:00,20.2,13.2,29.91,WSW,249,16.0,16.0,74,0.00,BKN,,0.00,0.0,WeatherDisplay:10.37,2013-03-19 09:59:00,
2013-03-19 05:04:00,20.2,13.2,29.91,SW,235,23.0,23.0,74,0.00,SCT,,0.00,0.0,WeatherDisplay:10.37,2013-03-19 10:04:00,
2013-03-19 05:09:00,20.2,13.2,29.91,West,264,24.2,24.2,74,0.00,SCT,,0.00,0.0,WeatherDisplay:10.37,2013-03-19 10:09:00,
2013-03-19 05:14:00,20.1,12.8,29.91,WSW,257,22.0,22.0,73,0.00,SCT,,0.00,0.0,WeatherDisplay:10.37,2013-03-19 10:14:00,
2013-03-19 05:19:00,20.0,12.7,29.91,WSW,248,18.4,18.4,73,0.00,SCT,,0.00,0.0,WeatherDisplay:10.37,2013-03-19 10:19:00,
2013-03-19 05:24:00,20.0,12.7,29.91,West,260,21.9,21.9,73,0.00,SCT,,0.00,0.0,WeatherDisplay:10.37,2013-03-19 10:24:00,
2013-03-19 05:29:00,20.0,12.7,29.92,WSW,256,16.1,16.1,73,0.00,SCT,,0.00,0.0,WeatherDisplay:10.37,2013-03-19 10:29:00,
2013-03-19 05:34:00,20.0,12.7,29.92,WSW,256,16.1,16.1,73,0.00,CLR,,0.00,0.0,WeatherDisplay:10.37,2013-03-19 10:34:00,
2013-03-19 05:39:00,20.0,13.0,29.92,WSW,242,23.0,23.0,74,0.00,CLR,,0.00,0.0,WeatherDisplay:10.37,2013-03-19 10:39:00,
2013-03-19 05:44:00,20.0,13.3,29.92,WSW,253,15.0,15.0,75,0.00,CLR,,0.00,0.0,WeatherDisplay:10.37,2013-03-19 10:44:00,
2013-03-19 05:49:00,19.9,13.3,29.92,WSW,242,14.0,14.0,75,0.00,CLR,,0.00,0.0,WeatherDisplay:10.37,2013-03-19 10:49:00,
2013-03-19 05:54:00,19.9,13.3,29.92,West,268,18.4,18.4,75,0.00,CLR,,0.00,0.0,WeatherDisplay:10.37,2013-03-19 10:54:00,
2013-03-19 05:59:00,19.8,12.8,29.92,West,281,24.2,24.2,74,0.00,CLR,,0.00,0.0,WeatherDisplay:10.37,2013-03-19 10:59:00,
2013-03-19 06:04:00,19.7,12.8,29.92,SW,234,20.7,20.7,74,0.00,CLR,,0.00,0.0,WeatherDisplay:10.37,2013-03-19 11:04:00,
2013-03-19 06:09:00,19.6,12.7,29.93,WSW,254,16.1,16.1,74,0.00,CLR,,0.00,0.0,WeatherDisplay:10.37,2013-03-19 11:09:00,
2013-03-19 06:14:00,19.5,12.6,29.93,WSW,246,24.2,24.2,74,0.00,CLR,,0.00,0.0,WeatherDisplay:10.37,2013-03-19 11:14:00,
2013-03-19 06:19:00,19.4,12.5,29.93,WSW,243,20.0,20.0,74,0.00,CLR,,0.00,0.0,WeatherDisplay:10.37,2013-03-19 11:19:00,
2013-03-19 06:24:00,19.3,12.4,29.93,WSW,244,21.9,21.9,74,0.00,CLR,,0.00,0.0,WeatherDisplay:10.37,2013-03-19 11:24:00,
2013-03-19 06:29:00,19.3,12.1,29.93,SW,236,20.7,20.7,73,0.00,CLR,,0.00,0.0,WeatherDisplay:10.37,2013-03-19 11:29:00,
2013-03-19 06:34:00,19.3,12.1,29.93,WSW,239,20.7,20.7,73,0.00,CLR,,0.00,0.0,WeatherDisplay:10.37,2013-03-19 11:34:00,
2013-03-19 06:39:00,19.3,12.1,29.94,West,274,19.6,19.6,73,0.00,CLR,,0.00,0.0,WeatherDisplay:10.37,2013-03-19 11:39:00,
2013-03-19 06:45:00,19.3,12.1,29.94,West,260,23.0,23.0,73,0.00,CLR,,0.00,0.0,WeatherDisplay:10.37,2013-03-19 11:45:00,
2013-03-19 06:50:00,19.3,11.7,29.94,WSW,249,24.2,24.2,72,0.00,CLR,,0.00,0.0,WeatherDisplay:10.37,2013-03-19 11:50:00,
2013-03-19 06:55:00,19.3,11.7,29.93,WSW,252,17.0,17.0,72,0.00,CLR,,0.00,0.0,WeatherDisplay:10.37,2013-03-19 11:55:00,
2013-03-19 07:00:00,19.2,12.0,29.94,WSW,242,17.3,17.3,73,0.00,CLR,,0.00,5.0,WeatherDisplay:10.37,2013-03-19 12:00:00,
2013-03-19 07:05:00,19.2,12.3,29.94,West,277,18.4,18.4,74,0.00,CLR,,0.00,9.0,WeatherDisplay:10.37,2013-03-19 12:05:00,
2013-03-19 07:10:00,19.2,12.3,29.94,WSW,258,19.6,19.6,74,0.00,CLR,,0.00,12.0,WeatherDisplay:10.37,2013-03-19 12:10:00,
2013-03-19 07:15:00,19.3,12.4,29.94,WSW,244,20.7,20.7,74,0.00,CLR,,0.00,16.0,WeatherDisplay:10.37,2013-03-19 12:15:00,
2013-03-19 07:20:00,19.3,12.1,29.94,WNW,288,18.4,18.4,73,0.00,CLR,,0.00,21.0,WeatherDisplay:10.37,2013-03-19 12:20:00,
2013-03-19 07:25:00,19.3,12.1,29.95,West,268,15.0,15.0,73,0.00,CLR,,0.00,28.0,WeatherDisplay:10.37,2013-03-19 12:25:00,
2013-03-19 07:30:00,19.4,12.2,29.95,WNW,284,16.1,16.1,73,0.00,CLR,,0.00,40.0,WeatherDisplay:10.37,2013-03-19 12:30:00,
2013-03-19 07:35:00,19.4,12.2,29.95,West,281,19.6,19.6,73,0.00,CLR,,0.00,49.0,WeatherDisplay:10.37,2013-03-19 12:35:00,
2013-03-19 07:40:00,19.5,11.6,29.95,West,273,25.3,25.3,71,0.00,CLR,,0.00,63.0,WeatherDisplay:10.37,2013-03-19 12:40:00,
2013-03-19 07:45:00,19.6,11.7,29.95,WNW,288,17.3,17.3,71,0.00,CLR,,0.00,81.0,WeatherDisplay:10.37,2013-03-19 12:45:00,
2013-03-19 07:50:00,19.6,11.7,29.94,West,263,23.0,23.0,71,0.00,CLR,,0.00,74.0,WeatherDisplay:10.37,2013-03-19 12:50:00,
2013-03-19 07:55:00,19.7,11.8,29.94,WSW,244,15.0,15.0,71,0.00,CLR,,0.00,113.0,WeatherDisplay:10.37,2013-03-19 12:55:00,
2013-03-19 08:00:00,19.8,11.9,29.94,SW,234,16.1,16.1,71,0.00,CLR,,0.00,134.0,WeatherDisplay:10.37,2013-03-19 13:00:00,
2013-03-19 08:05:00,19.9,12.0,29.94,West,266,20.0,20.0,71,0.00,CLR,,0.00,158.0,WeatherDisplay:10.37,2013-03-19 13:05:00,
2013-03-19 08:10:00,19.9,11.7,29.95,WSW,249,23.0,23.0,70,0.00,CLR,,0.00,174.0,WeatherDisplay:10.37,2013-03-19 13:10:00,
2013-03-19 08:15:00,20.1,11.6,29.95,West,265,16.1,16.1,69,0.00,CLR,,0.00,197.0,WeatherDisplay:10.37,2013-03-19 13:15:00,
2013-03-19 08:20:00,20.3,11.7,29.96,WSW,246,22.0,22.0,69,0.00,SCT,,0.00,213.0,WeatherDisplay:10.37,2013-03-19 13:20:00,
2013-03-19 08:25:00,20.3,11.7,29.96,West,277,25.3,25.3,69,0.00,SCT,,0.00,234.0,WeatherDisplay:10.37,2013-03-19 13:25:00,
2013-03-19 08:30:00,20.6,12.0,29.96,West,265,13.8,13.8,69,0.00,SCT,,0.00,253.0,WeatherDisplay:10.37,2013-03-19 13:30:00,
2013-03-19 08:35:00,20.8,11.6,29.96,SW,231,19.6,19.6,67,0.00,SCT,,0.00,271.0,WeatherDisplay:10.37,2013-03-19 13:35:00,
2013-03-19 08:40:00,20.7,11.1,29.97,WNW,282,24.2,24.2,66,0.00,SCT,,0.00,290.0,WeatherDisplay:10.37,2013-03-19 13:40:00,
2013-03-19 08:45:00,20.7,11.5,29.96,WSW,246,26.0,26.0,67,0.00,SCT,,0.00,309.0,WeatherDisplay:10.37,2013-03-19 13:45:00,
2013-03-19 08:50:00,20.9,11.7,29.97,SW,226,22.0,22.0,67,0.00,CLR,,0.00,322.0,WeatherDisplay:10.37,2013-03-19 13:50:00,
2013-03-19 08:55:00,21.0,11.4,29.97,SW,230,20.0,20.0,66,0.00,CLR,,0.00,339.0,WeatherDisplay:10.37,2013-03-19 13:55:00,
2013-03-19 09:00:00,21.2,11.9,29.97,West,279,19.6,19.6,67,0.00,CLR,,0.00,360.0,WeatherDisplay:10.37,2013-03-19 14:00:00,
2013-03-19 09:05:00,21.3,11.4,29.97,SW,227,23.0,23.0,65,0.00,CLR,,0.00,374.0,WeatherDisplay:10.37,2013-03-19 14:05:00,
2013-03-19 09:10:00,21.2,11.6,29.97,WSW,249,21.9,21.9,66,0.00,CLR,,0.00,394.0,WeatherDisplay:10.37,2013-03-19 14:10:00,
2013-03-19 09:15:00,21.6,12.0,29.97,WSW,238,18.4,18.4,66,0.00,CLR,,0.00,406.0,WeatherDisplay:10.37,2013-03-19 14:15:00,
2013-03-19 09:20:00,21.9,12.3,29.97,West,260,24.2,24.2,66,0.00,CLR,,0.00,424.0,WeatherDisplay:10.37,2013-03-19 14:20:00,
2013-03-19 09:25:00,21.9,11.9,29.97,West,263,26.5,26.5,65,0.00,CLR,,0.00,438.0,WeatherDisplay:10.37,2013-03-19 14:25:00,
2013-03-19 09:30:00,22.0,12.0,29.97,WSW,239,19.6,19.6,65,0.00,CLR,,0.00,452.0,WeatherDisplay:10.37,2013-03-19 14:30:00,
2013-03-19 09:35:00,22.4,12.8,29.98,West,281,15.0,15.0,66,0.00,CLR,,0.00,466.0,WeatherDisplay:10.37,2013-03-19 14:35:00,
2013-03-19 09:40:00,22.5,11.8,29.98,West,267,25.3,25.3,63,0.00,CLR,,0.00,482.0,WeatherDisplay:10.37,2013-03-19 14:40:00,
2013-03-19 09:45:00,22.7,12.3,29.98,West,278,19.6,19.6,64,0.00,CLR,,0.00,506.0,WeatherDisplay:10.37,2013-03-19 14:45:00,
2013-03-19 09:50:00,22.9,12.5,29.98,West,268,18.4,18.4,64,0.00,CLR,,0.00,517.0,WeatherDisplay:10.37,2013-03-19 14:50:00,
2013-03-19 09:55:00,23.3,12.9,29.98,WSW,255,19.6,19.6,64,0.00,CLR,,0.00,541.0,WeatherDisplay:10.37,2013-03-19 14:55:00,
2013-03-19 10:00:00,23.6,13.5,29.98,West,279,19.6,19.6,65,0.00,CLR,,0.00,534.0,WeatherDisplay:10.37,2013-03-19 15:00:00,
2013-03-19 10:05:00,23.5,12.4,29.98,NW,306,26.5,26.5,62,0.00,CLR,,0.00,554.0,WeatherDisplay:10.37,2013-03-19 15:05:00,
2013-03-19 10:11:00,23.5,12.7,29.98,West,273,23.0,23.0,63,0.00,CLR,,0.00,563.0,WeatherDisplay:10.37,2013-03-19 15:11:00,
2013-03-19 10:16:00,23.9,13.5,29.98,WNW,299,13.8,13.8,64,0.00,CLR,,0.00,575.0,WeatherDisplay:10.37,2013-03-19 15:16:00,
2013-03-19 10:21:00,24.5,13.3,29.99,West,268,15.0,15.0,62,0.00,CLR,,0.00,587.0,WeatherDisplay:10.37,2013-03-19 15:21:00,
2013-03-19 10:26:00,23.9,12.0,29.99,WSW,247,26.5,26.5,60,0.00,CLR,,0.00,606.0,WeatherDisplay:10.37,2013-03-19 15:26:00,
2013-03-19 10:31:00,24.2,12.7,29.99,WSW,246,18.4,18.4,61,0.00,CLR,,0.00,615.0,WeatherDisplay:10.37,2013-03-19 15:31:00,
2013-03-19 10:36:00,24.7,13.1,29.99,West,260,20.7,20.7,61,0.00,CLR,,0.00,626.0,WeatherDisplay:10.37,2013-03-19 15:36:00,
2013-03-19 10:41:00,24.8,13.2,30.00,WSW,254,19.6,19.6,61,0.00,CLR,,0.00,640.0,WeatherDisplay:10.37,2013-03-19 15:41:00,
2013-03-19 10:46:00,25.1,13.5,30.00,SW,236,18.4,18.4,61,0.00,CLR,,0.00,650.0,WeatherDisplay:10.37,2013-03-19 15:46:00,
2013-03-19 10:51:00,25.4,13.4,30.00,West,273,23.0,23.0,60,0.00,SCT,,0.00,661.0,WeatherDisplay:10.37,2013-03-19 15:51:00,
2013-03-19 10:56:00,25.8,13.8,30.00,North,355,18.4,18.4,60,0.00,SCT,,0.00,671.0,WeatherDisplay:10.37,2013-03-19 15:56:00,
2013-03-19 11:01:00,26.0,14.0,30.01,WSW,250,17.3,17.3,60,0.00,SCT,,0.00,680.0,WeatherDisplay:10.37,2013-03-19 16:01:00,
2013-03-19 11:06:00,26.3,13.9,30.01,WNW,284,23.0,23.0,59,0.00,SCT,,0.00,694.0,WeatherDisplay:10.37,2013-03-19 16:06:00,
2013-03-19 11:11:00,26.6,14.2,30.01,WNW,298,21.9,21.9,59,0.00,SCT,,0.00,703.0,WeatherDisplay:10.37,2013-03-19 16:11:00,
2013-03-19 11:16:00,26.8,14.4,30.01,WNW,292,25.3,25.3,59,0.00,CLR,,0.00,714.0,WeatherDisplay:10.37,2013-03-19 16:16:00,
2013-03-19 11:22:00,26.7,14.3,30.01,WSW,248,20.7,20.7,59,0.00,CLR,,0.00,722.0,WeatherDisplay:10.37,2013-03-19 16:22:00,
2013-03-19 11:27:00,27.0,14.6,30.02,WSW,252,19.6,19.6,59,0.00,CLR,,0.00,731.0,WeatherDisplay:10.37,2013-03-19 16:27:00,
2013-03-19 11:32:00,27.2,14.4,30.02,WSW,247,23.0,23.0,58,0.00,CLR,,0.00,740.0,WeatherDisplay:10.37,2013-03-19 16:32:00,
2013-03-19 11:37:00,27.8,15.3,30.02,West,271,22.0,22.0,59,0.00,CLR,,0.00,749.0,WeatherDisplay:10.37,2013-03-19 16:37:00,
2013-03-19 11:42:00,27.8,14.5,30.02,WSW,244,29.0,29.0,57,0.00,CLR,,0.00,758.0,WeatherDisplay:10.37,2013-03-19 16:42:00,
2013-03-19 11:47:00,28.0,15.1,30.03,WNW,298,22.0,22.0,58,0.00,CLR,,0.00,765.0,WeatherDisplay:10.37,2013-03-19 16:47:00,
2013-03-19 11:52:00,27.7,13.6,30.02,WNW,284,21.9,21.9,55,0.00,CLR,,0.00,772.0,WeatherDisplay:10.37,2013-03-19 16:52:00,
2013-03-19 11:57:00,28.1,14.8,30.03,West,269,19.6,19.6,57,0.00,CLR,,0.00,775.0,WeatherDisplay:10.37,2013-03-19 16:57:00,
2013-03-19 12:02:00,28.9,15.6,30.03,West,260,21.9,21.9,57,0.00,CLR,,0.00,779.0,WeatherDisplay:10.37,2013-03-19 17:02:00,
2013-03-19 12:07:00,29.0,15.2,30.03,West,273,21.9,21.9,56,0.00,CLR,,0.00,786.0,WeatherDisplay:10.37,2013-03-19 17:07:00,
2013-03-19 12:12:00,28.9,15.6,30.04,NNW,329,18.4,18.4,57,0.00,CLR,,0.00,789.0,WeatherDisplay:10.37,2013-03-19 17:12:00,
2013-03-19 12:18:00,28.9,15.6,30.03,West,259,23.0,23.0,57,0.00,CLR,,0.00,796.0,WeatherDisplay:10.37,2013-03-19 17:18:00,
2013-03-19 12:23:00,29.0,15.7,30.04,WNW,302,19.6,19.6,57,0.00,CLR,,0.00,796.0,WeatherDisplay:10.37,2013-03-19 17:23:00,
2013-03-19 12:28:00,29.0,15.7,30.04,WNW,296,24.2,24.2,57,0.00,CLR,,0.00,796.0,WeatherDisplay:10.37,2013-03-19 17:28:00,
2013-03-19 12:33:00,29.4,15.6,30.05,WSW,242,21.9,21.9,56,0.00,CLR,,0.00,803.0,WeatherDisplay:10.37,2013-03-19 17:33:00,
2013-03-19 12:38:00,29.3,14.7,30.05,WSW,239,28.8,28.8,54,0.00,CLR,,0.00,803.0,WeatherDisplay:10.37,2013-03-19 17:38:00,
2013-03-19 12:43:00,29.3,14.3,30.05,NW,313,25.3,25.3,53,0.00,CLR,,0.00,805.0,WeatherDisplay:10.37,2013-03-19 17:43:00,
2013-03-19 12:48:00,30.0,16.6,30.05,WNW,292,18.4,18.4,57,0.00,CLR,,0.00,805.0,WeatherDisplay:10.37,2013-03-19 17:48:00,
2013-03-19 12:53:00,30.0,15.8,30.05,WSW,254,19.6,19.6,55,0.00,CLR,,0.00,803.0,WeatherDisplay:10.37,2013-03-19 17:53:00,
2013-03-19 12:58:00,30.6,16.7,30.05,WNW,289,23.0,23.0,56,0.00,CLR,,0.00,805.0,WeatherDisplay:10.37,2013-03-19 17:58:00,
2013-03-19 13:03:00,30.4,16.1,30.05,WNW,297,20.7,20.7,55,0.00,CLR,,0.00,803.0,WeatherDisplay:10.37,2013-03-19 18:03:00,
2013-03-19 13:08:00,30.8,16.9,30.05,West,262,19.6,19.6,56,0.00,CLR,,0.00,805.0,WeatherDisplay:10.37,2013-03-19 18:08:00,
2013-03-19 13:13:00,31.1,18.0,30.05,WNW,285,13.8,13.8,58,0.00,CLR,,0.00,803.0,WeatherDisplay:10.37,2013-03-19 18:13:00,
2013-03-19 13:18:00,30.9,15.3,30.05,West,259,24.2,24.2,52,0.00,CLR,,0.00,805.0,WeatherDisplay:10.37,2013-03-19 18:18:00,
2013-03-19 13:23:00,30.6,16.3,30.05,West,276,23.0,23.0,55,0.00,CLR,,0.00,798.0,WeatherDisplay:10.37,2013-03-19 18:23:00,
2013-03-19 13:28:00,31.1,17.2,30.05,West,270,23.0,23.0,56,0.00,CLR,,0.00,798.0,WeatherDisplay:10.37,2013-03-19 18:28:00,
2013-03-19 13:33:00,31.3,16.6,30.05,West,265,19.6,19.6,54,0.00,CLR,,0.00,793.0,WeatherDisplay:10.37,2013-03-19 18:33:00,
2013-03-19 13:38:00,31.5,16.3,30.06,West,269,21.9,21.9,53,0.00,CLR,,0.00,795.0,WeatherDisplay:10.37,2013-03-19 18:38:00,
2013-03-19 13:43:00,31.4,16.2,30.05,West,271,19.6,19.6,53,0.00,CLR,,0.00,786.0,WeatherDisplay:10.37,2013-03-19 18:43:00,
2013-03-19 13:48:00,31.5,17.6,30.05,WSW,244,23.0,23.0,56,0.00,CLR,,0.00,780.0,WeatherDisplay:10.37,2013-03-19 18:48:00,
2013-03-19 13:53:00,31.7,17.4,30.05,WNW,288,19.6,19.6,55,0.00,CLR,,0.00,779.0,WeatherDisplay:10.37,2013-03-19 18:53:00,
2013-03-19 13:58:00,31.7,16.1,30.05,WSW,240,29.9,29.9,52,0.00,CLR,,0.00,775.0,WeatherDisplay:10.37,2013-03-19 18:58:00,
2013-03-19 14:03:00,31.6,16.0,30.06,West,272,21.9,21.9,52,0.00,CLR,,0.00,768.0,WeatherDisplay:10.37,2013-03-19 19:03:00,
2013-03-19 14:08:00,32.2,17.4,30.06,WNW,302,21.9,21.9,54,0.00,CLR,,0.00,761.0,WeatherDisplay:10.37,2013-03-19 19:08:00,
2013-03-19 14:13:00,32.9,18.1,30.06,WSW,242,18.4,18.4,54,0.00,CLR,,0.00,754.0,WeatherDisplay:10.37,2013-03-19 19:13:00,
2013-03-19 14:18:00,32.8,18.4,30.06,WSW,238,19.6,19.6,55,0.00,CLR,,0.00,745.0,WeatherDisplay:10.37,2013-03-19 19:18:00,
2013-03-19 14:23:00,33.2,17.9,30.06,WNW,300,25.3,25.3,53,0.00,CLR,,0.00,744.0,WeatherDisplay:10.37,2013-03-19 19:23:00,
2013-03-19 14:28:00,33.3,16.6,30.06,West,265,18.4,18.4,50,0.00,CLR,,0.00,735.0,WeatherDisplay:10.37,2013-03-19 19:28:00,
2013-03-19 14:34:00,33.4,17.2,30.06,WNW,300,21.9,21.9,51,0.00,CLR,,0.00,728.0,WeatherDisplay:10.37,2013-03-19 19:34:00,
2013-03-19 14:39:00,33.3,18.0,30.06,WSW,254,28.8,28.8,53,0.00,CLR,,0.00,721.0,WeatherDisplay:10.37,2013-03-19 19:39:00,
2013-03-19 14:44:00,33.3,16.2,30.06,WNW,293,25.3,25.3,49,0.00,CLR,,0.00,712.0,WeatherDisplay:10.37,2013-03-19 19:44:00,
2013-03-19 14:49:00,33.9,18.1,30.07,WSW,255,18.4,18.4,52,0.00,CLR,,0.00,698.0,WeatherDisplay:10.37,2013-03-19 19:49:00,
2013-03-19 14:54:00,33.8,18.5,30.06,WSW,244,18.4,18.4,53,0.00,CLR,,0.00,693.0,WeatherDisplay:10.37,2013-03-19 19:54:00,
2013-03-19 14:59:00,33.8,17.6,30.07,West,271,24.2,24.2,51,0.00,CLR,,0.00,682.0,WeatherDisplay:10.37,2013-03-19 19:59:00,
2013-03-19 15:04:00,33.7,16.5,30.07,SW,233,20.7,20.7,49,0.00,CLR,,0.00,673.0,WeatherDisplay:10.37,2013-03-19 20:04:00,
2013-03-19 15:09:00,33.7,17.9,30.07,WSW,242,20.7,20.7,52,0.00,CLR,,0.00,661.0,WeatherDisplay:10.37,2013-03-19 20:09:00,
2013-03-19 15:14:00,34.3,18.5,30.07,SW,234,19.6,19.6,52,0.00,CLR,,0.00,649.0,WeatherDisplay:10.37,2013-03-19 20:14:00,
2013-03-19 15:19:00,34.3,16.6,30.07,WNW,286,26.5,26.5,48,0.00,CLR,,0.00,642.0,WeatherDisplay:10.37,2013-03-19 20:19:00,
2013-03-19 15:24:00,34.3,16.6,30.07,West,269,19.6,19.6,48,0.00,CLR,,0.00,629.0,WeatherDisplay:10.37,2013-03-19 20:24:00,
2013-03-19 15:29:00,34.5,18.2,30.07,WSW,254,17.3,17.3,51,0.00,CLR,,0.00,615.0,WeatherDisplay:10.37,2013-03-19 20:29:00,
2013-03-19 15:34:00,34.7,18.4,30.07,WSW,257,25.3,25.3,51,0.00,CLR,,0.00,606.0,WeatherDisplay:10.37,2013-03-19 20:34:00,
2013-03-19 15:39:00,34.9,17.7,30.07,NW,312,17.3,17.3,49,0.00,CLR,,0.00,594.0,WeatherDisplay:10.37,2013-03-19 20:39:00,
2013-03-19 15:44:00,35.0,17.3,30.07,West,278,17.3,17.3,48,0.00,CLR,,0.00,580.0,WeatherDisplay:10.37,2013-03-19 20:44:00,
2013-03-19 15:49:00,35.1,18.8,30.07,West,275,20.7,20.7,51,0.00,CLR,,0.00,568.0,WeatherDisplay:10.37,2013-03-19 20:49:00,
2013-03-19 15:54:00,35.1,17.8,30.07,WNW,296,20.7,20.7,49,0.00,CLR,,0.00,554.0,WeatherDisplay:10.37,2013-03-19 20:54:00,
2013-03-19 15:59:00,35.0,16.3,30.07,SW,223,17.3,17.3,46,0.00,CLR,,0.00,541.0,WeatherDisplay:10.37,2013-03-19 20:59:00,
2013-03-19 16:04:00,35.3,19.0,30.07,North,355,16.1,16.1,51,0.00,CLR,,0.00,526.0,WeatherDisplay:10.37,2013-03-19 21:04:00,
2013-03-19 16:09:00,35.2,17.0,30.08,WNW,302,20.7,20.7,47,0.00,CLR,,0.00,513.0,WeatherDisplay:10.37,2013-03-19 21:09:00,
2013-03-19 16:14:00,35.4,17.1,30.08,WSW,251,23.0,23.0,47,0.00,CLR,,0.00,501.0,WeatherDisplay:10.37,2013-03-19 21:14:00,
2013-03-19 16:19:00,35.6,16.8,30.08,WSW,254,18.4,18.4,46,0.00,CLR,,0.00,483.0,WeatherDisplay:10.37,2013-03-19 21:19:00,
2013-03-19 16:24:00,35.7,16.9,30.08,WSW,252,17.3,17.3,46,0.00,CLR,,0.00,471.0,WeatherDisplay:10.37,2013-03-19 21:24:00,
2013-03-19 16:29:00,35.6,15.8,30.08,WSW,241,21.9,21.9,44,0.00,CLR,,0.00,455.0,WeatherDisplay:10.37,2013-03-19 21:29:00,
2013-03-19 16:34:00,35.7,15.9,30.08,WNW,298,19.6,19.6,44,0.00,CLR,,0.00,441.0,WeatherDisplay:10.37,2013-03-19 21:34:00,
2013-03-19 16:39:00,35.9,15.5,30.08,West,279,21.9,21.9,43,0.00,CLR,,0.00,424.0,WeatherDisplay:10.37,2013-03-19 21:39:00,
2013-03-19 16:44:00,36.4,17.6,30.08,WSW,246,11.5,11.5,46,0.00,CLR,,0.00,406.0,WeatherDisplay:10.37,2013-03-19 21:44:00,
2013-03-19 16:49:00,36.5,17.7,30.08,West,277,19.6,19.6,46,0.00,CLR,,0.00,390.0,WeatherDisplay:10.37,2013-03-19 21:49:00,
2013-03-19 16:54:00,36.5,16.6,30.08,NW,307,19.6,19.6,44,0.00,CLR,,0.00,376.0,WeatherDisplay:10.37,2013-03-19 21:54:00,
2013-03-19 16:59:00,36.4,16.0,30.08,NW,320,15.0,15.0,43,0.00,CLR,,0.00,359.0,WeatherDisplay:10.37,2013-03-19 21:59:00,
2013-03-19 17:04:00,36.6,16.7,30.08,West,274,15.0,15.0,44,0.00,CLR,,0.00,345.0,WeatherDisplay:10.37,2013-03-19 22:04:00,
2013-03-19 17:09:00,36.5,17.7,30.08,West,267,18.0,18.0,46,0.00,CLR,,0.00,323.0,WeatherDisplay:10.37,2013-03-19 22:09:00,
2013-03-19 17:14:00,36.8,16.9,30.08,WNW,288,15.0,15.0,44,0.00,CLR,,0.00,309.0,WeatherDisplay:10.37,2013-03-19 22:14:00,
2013-03-19 17:19:00,36.8,16.4,30.08,West,281,16.0,16.0,43,0.00,CLR,,0.00,295.0,WeatherDisplay:10.37,2013-03-19 22:19:00,
2013-03-19 17:25:00,36.5,16.1,30.09,WNW,294,18.4,18.4,43,0.00,CLR,,0.00,278.0,WeatherDisplay:10.37,2013-03-19 22:25:00,
2013-03-19 17:30:00,36.5,17.7,30.09,WSW,252,26.5,26.5,46,0.00,CLR,,0.00,257.0,WeatherDisplay:10.37,2013-03-19 22:30:00,
2013-03-19 17:35:00,36.1,18.3,30.09,WSW,252,20.7,20.7,48,0.00,CLR,,0.00,236.0,WeatherDisplay:10.37,2013-03-19 22:35:00,
2013-03-19 17:40:00,36.1,17.3,30.09,WSW,244,17.3,17.3,46,0.00,CLR,,0.00,211.0,WeatherDisplay:10.37,2013-03-19 22:40:00,
2013-03-19 17:45:00,36.1,16.3,30.09,WSW,246,19.6,19.6,44,0.00,CLR,,0.00,190.0,WeatherDisplay:10.37,2013-03-19 22:45:00,
2013-03-19 17:50:00,35.8,17.5,30.10,West,272,21.9,21.9,47,0.00,CLR,,0.00,169.0,WeatherDisplay:10.37,2013-03-19 22:50:00,
2013-03-19 17:55:00,35.7,16.9,30.10,WNW,282,18.4,18.4,46,0.00,CLR,,0.00,149.0,WeatherDisplay:10.37,2013-03-19 22:55:00,
2013-03-19 18:00:00,35.7,17.4,30.10,WSW,254,12.7,12.7,47,0.00,CLR,,0.00,128.0,WeatherDisplay:10.37,2013-03-19 23:00:00,
2013-03-19 18:05:00,35.6,18.8,30.10,WSW,246,21.9,21.9,50,0.00,CLR,,0.00,111.0,WeatherDisplay:10.37,2013-03-19 23:05:00,
2013-03-19 18:10:00,35.5,16.7,30.10,WNW,292,16.1,16.1,46,0.00,CLR,,0.00,93.0,WeatherDisplay:10.37,2013-03-19 23:10:00,
2013-03-19 18:15:00,35.1,17.8,30.11,SSW,196,19.6,19.6,49,0.00,CLR,,0.00,26.0,WeatherDisplay:10.37,2013-03-19 23:15:00,
2013-03-19 18:20:00,34.8,17.6,30.11,West,263,15.0,15.0,49,0.00,CLR,,0.00,25.0,WeatherDisplay:10.37,2013-03-19 23:20:00,
2013-03-19 18:25:00,34.7,17.0,30.11,West,269,23.0,23.0,48,0.00,CLR,,0.00,23.0,WeatherDisplay:10.37,2013-03-19 23:25:00,
2013-03-19 18:30:00,34.6,17.4,30.11,WNW,287,11.5,11.5,49,0.00,CLR,,0.00,21.0,WeatherDisplay:10.37,2013-03-19 23:30:00,
2013-03-19 18:35:00,34.4,17.2,30.11,West,281,16.1,16.1,49,0.00,CLR,,0.00,19.0,WeatherDisplay:10.37,2013-03-19 23:35:00,
2013-03-19 18:40:00,34.2,17.5,30.11,WNW,287,12.7,12.7,50,0.00,CLR,,0.00,16.0,WeatherDisplay:10.37,2013-03-19 23:40:00,
2013-03-19 18:45:00,34.0,18.2,30.11,WNW,293,11.5,11.5,52,0.00,CLR,,0.00,14.0,WeatherDisplay:10.37,2013-03-19 23:45:00,
2013-03-19 18:50:00,34.0,18.2,30.11,WSW,246,12.7,12.7,52,0.00,CLR,,0.00,11.0,WeatherDisplay:10.37,2013-03-19 23:50:00,
2013-03-19 18:55:00,33.8,17.6,30.11,WSW,255,16.1,16.1,51,0.00,CLR,,0.00,7.0,WeatherDisplay:10.37,2013-03-19 23:55:00,
2013-03-19 19:00:00,33.5,17.7,30.11,WSW,246,11.5,11.5,52,0.00,CLR,,0.00,5.0,WeatherDisplay:10.37,2013-03-20 00:00:00,
2013-03-19 19:05:00,33.3,17.5,30.11,West,271,11.5,11.5,52,0.00,CLR,,0.00,0.0,WeatherDisplay:10.37,2013-03-20 00:05:00,
2013-03-19 19:10:00,33.2,17.0,30.11,WNW,285,16.1,16.1,51,0.00,CLR,,0.00,0.0,WeatherDisplay:10.37,2013-03-20 00:10:00,
2013-03-19 19:15:00,33.2,17.5,30.11,West,270,13.8,13.8,52,0.00,CLR,,0.00,0.0,WeatherDisplay:10.37,2013-03-20 00:15:00,
2013-03-19 19:20:00,33.0,17.7,30.11,WSW,249,14.0,14.0,53,0.00,CLR,,0.00,0.0,WeatherDisplay:10.37,2013-03-20 00:20:00,
2013-03-19 19:25:00,32.9,17.6,30.11,SW,228,16.1,16.1,53,0.00,CLR,,0.00,0.0,WeatherDisplay:10.37,2013-03-20 00:25:00,
2013-03-19 19:30:00,32.6,18.2,30.11,WSW,255,16.1,16.1,55,0.00,CLR,,0.00,0.0,WeatherDisplay:10.37,2013-03-20 00:30:00,
2013-03-19 19:35:00,32.6,18.2,30.11,West,273,17.0,17.0,55,0.00,CLR,,0.00,0.0,WeatherDisplay:10.37,2013-03-20 00:35:00,
2013-03-19 19:40:00,32.6,18.6,30.11,WNW,296,15.0,15.0,56,0.00,CLR,,0.00,0.0,WeatherDisplay:10.37,2013-03-20 00:40:00,
2013-03-19 19:45:00,32.4,18.8,30.12,SW,235,13.8,13.8,57,0.00,CLR,,0.00,0.0,WeatherDisplay:10.37,2013-03-20 00:45:00,
2013-03-19 19:50:00,32.2,18.7,30.12,WSW,248,13.8,13.8,57,0.00,CLR,,0.00,0.0,WeatherDisplay:10.37,2013-03-20 00:50:00,
2013-03-19 19:55:00,32.2,18.7,30.12,West,263,11.5,11.5,57,0.00,CLR,,0.00,0.0,WeatherDisplay:10.37,2013-03-20 00:55:00,
2013-03-19 20:00:00,32.1,18.6,30.12,WSW,250,11.5,11.5,57,0.00,CLR,,0.00,0.0,WeatherDisplay:10.37,2013-03-20 01:00:00,
2013-03-19 20:05:00,32.0,18.5,30.12,SW,223,6.9,6.9,57,0.00,SCT,,0.00,0.0,WeatherDisplay:10.37,2013-03-20 01:05:00,
2013-03-19 20:10:00,31.8,18.7,30.12,WSW,253,8.1,8.1,58,0.00,SCT,,0.00,0.0,WeatherDisplay:10.37,2013-03-20 01:10:00,
2013-03-19 20:15:00,31.6,18.9,30.12,WNW,284,9.2,9.2,59,0.00,SCT,,0.00,0.0,WeatherDisplay:10.37,2013-03-20 01:15:00,
2013-03-19 20:20:00,31.5,18.8,30.13,WSW,244,9.2,9.2,59,0.00,SCT,,0.00,0.0,WeatherDisplay:10.37,2013-03-20 01:20:00,
2013-03-19 20:25:00,31.3,19.4,30.12,WSW,252,7.0,7.0,61,0.00,SCT,,0.00,0.0,WeatherDisplay:10.37,2013-03-20 01:25:00,
2013-03-19 20:30:00,31.1,19.6,30.12,WSW,252,9.2,9.2,62,0.00,SCT,,0.00,0.0,WeatherDisplay:10.37,2013-03-20 01:30:00,
2013-03-19 20:35:00,31.0,19.9,30.13,West,269,5.8,5.8,63,0.00,CLR,,0.00,0.0,WeatherDisplay:10.37,2013-03-20 01:35:00,
2013-03-19 20:40:00,31.0,20.2,30.13,West,275,8.0,8.0,64,0.00,CLR,,0.00,0.0,WeatherDisplay:10.37,2013-03-20 01:40:00,
2013-03-19 20:45:00,31.0,20.2,30.13,WSW,246,10.4,10.4,64,0.00,CLR,,0.00,0.0,WeatherDisplay:10.37,2013-03-20 01:45:00,
2013-03-19 20:50:00,31.0,20.2,30.13,WNW,302,9.2,9.2,64,0.00,CLR,,0.00,0.0,WeatherDisplay:10.37,2013-03-20 01:50:00,
2013-03-19 20:55:00,31.1,20.0,30.13,WNW,286,10.4,10.4,63,0.00,CLR,,0.00,0.0,WeatherDisplay:10.37,2013-03-20 01:55:00,
2013-03-19 21:00:00,31.2,19.3,30.13,WNW,294,11.5,11.5,61,0.00,CLR,,0.00,0.0,WeatherDisplay:10.37,2013-03-20 02:00:00,
2013-03-19 21:05:00,31.2,18.9,30.13,West,265,12.0,12.0,60,0.00,SCT,,0.00,0.0,WeatherDisplay:10.37,2013-03-20 02:05:00,
2013-03-19 21:10:00,31.1,18.8,30.13,SW,234,13.0,13.0,60,0.00,SCT,,0.00,0.0,WeatherDisplay:10.37,2013-03-20 02:10:00,
2013-03-19 21:15:00,31.1,18.0,30.13,WSW,240,12.7,12.7,58,0.00,SCT,,0.00,0.0,WeatherDisplay:10.37,2013-03-20 02:15:00,
2013-03-19 21:20:00,31.0,17.9,30.13,West,271,11.5,11.5,58,0.00,OVC,,0.00,0.0,WeatherDisplay:10.37,2013-03-20 02:20:00,
2013-03-19 21:25:00,30.9,17.8,30.13,West,266,10.4,10.4,58,0.00,OVC,,0.00,0.0,WeatherDisplay:10.37,2013-03-20 02:25:00,
2013-03-19 21:30:00,30.8,18.1,30.13,WSW,258,8.1,8.1,59,0.00,OVC,,0.00,0.0,WeatherDisplay:10.37,2013-03-20 02:30:00,
2013-03-19 21:35:00,30.6,18.3,30.13,WNW,285,11.5,11.5,60,0.00,SCT,,0.00,0.0,WeatherDisplay:10.37,2013-03-20 02:35:00,
2013-03-19 21:40:00,30.5,18.3,30.13,WSW,255,6.9,6.9,60,0.00,SCT,,0.00,0.0,WeatherDisplay:10.37,2013-03-20 02:40:00,
2013-03-19 21:45:00,30.2,18.7,30.13,WSW,244,4.0,4.0,62,0.00,SCT,,0.00,0.0,WeatherDisplay:10.37,2013-03-20 02:45:00,
2013-03-19 21:50:00,30.1,18.6,30.13,WSW,243,11.5,11.5,62,0.00,SCT,,0.00,0.0,WeatherDisplay:10.37,2013-03-20 02:50:00,
2013-03-19 21:55:00,30.1,19.0,30.13,WSW,251,9.2,9.2,63,0.00,SCT,,0.00,0.0,WeatherDisplay:10.37,2013-03-20 02:55:00,
2013-03-19 22:00:00,30.0,18.5,30.13,WNW,282,9.2,9.2,62,0.00,SCT,,0.00,0.0,WeatherDisplay:10.37,2013-03-20 03:00:00,
2013-03-19 22:05:00,29.9,18.8,30.14,WSW,240,8.1,8.1,63,0.00,CLR,,0.00,0.0,WeatherDisplay:10.37,2013-03-20 03:05:00,
2013-03-19 22:10:00,29.7,18.6,30.14,West,276,8.1,8.1,63,0.00,CLR,,0.00,0.0,WeatherDisplay:10.37,2013-03-20 03:10:00,
2013-03-19 22:15:00,29.6,18.9,30.14,NW,310,8.1,8.1,64,0.00,CLR,,0.00,0.0,WeatherDisplay:10.37,2013-03-20 03:15:00,
2013-03-19 22:20:00,29.5,18.8,30.13,WSW,245,13.8,13.8,64,0.00,CLR,,0.00,0.0,WeatherDisplay:10.37,2013-03-20 03:20:00,
2013-03-19 22:25:00,29.5,18.8,30.14,WNW,292,11.5,11.5,64,0.00,CLR,,0.00,0.0,WeatherDisplay:10.37,2013-03-20 03:25:00,
2013-03-19 22:30:00,29.4,18.3,30.13,NW,317,11.5,11.5,63,0.00,CLR,,0.00,0.0,WeatherDisplay:10.37,2013-03-20 03:30:00,
2013-03-19 22:35:00,29.3,18.3,30.13,NW,306,16.1,16.1,63,0.00,CLR,,0.00,0.0,WeatherDisplay:10.37,2013-03-20 03:35:00,
2013-03-19 22:40:00,29.2,18.2,30.14,West,278,12.7,12.7,63,0.00,CLR,,0.00,0.0,WeatherDisplay:10.37,2013-03-20 03:40:00,
2013-03-19 22:45:00,29.1,18.1,30.13,WSW,251,13.8,13.8,63,0.00,CLR,,0.00,0.0,WeatherDisplay:10.37,2013-03-20 03:45:00,
2013-03-19 22:50:00,29.0,17.6,30.13,West,279,15.0,15.0,62,0.00,CLR,,0.00,0.0,WeatherDisplay:10.37,2013-03-20 03:50:00,
2013-03-19 22:55:00,29.0,17.6,30.13,SW,232,16.1,16.1,62,0.00,CLR,,0.00,0.0,WeatherDisplay:10.37,2013-03-20 03:55:00,
2013-03-19 23:00:00,28.9,17.9,30.13,WNW,302,16.1,16.1,63,0.00,CLR,,0.00,0.0,WeatherDisplay:10.37,2013-03-20 04:00:00,
2013-03-19 23:05:00,28.8,17.8,30.13,NW,308,13.8,13.8,63,0.00,CLR,,0.00,0.0,WeatherDisplay:10.37,2013-03-20 04:05:00,
2013-03-19 23:10:00,28.7,18.1,30.13,WSW,256,11.5,11.5,64,0.00,CLR,,0.00,0.0,WeatherDisplay:10.37,2013-03-20 04:10:00,
2013-03-19 23:15:00,28.6,18.0,30.13,WSW,250,15.0,15.0,64,0.00,CLR,,0.00,0.0,WeatherDisplay:10.37,2013-03-20 04:15:00,
2013-03-19 23:20:00,28.5,17.9,30.13,West,271,12.7,12.7,64,0.00,CLR,,0.00,0.0,WeatherDisplay:10.37,2013-03-20 04:20:00,
2013-03-19 23:25:00,28.3,18.0,30.12,NW,310,17.0,17.0,65,0.00,CLR,,0.00,0.0,WeatherDisplay:10.37,2013-03-20 04:25:00,
2013-03-19 23:30:00,28.2,17.9,30.12,NW,311,12.7,12.7,65,0.00,CLR,,0.00,0.0,WeatherDisplay:10.37,2013-03-20 04:30:00,
2013-03-19 23:35:00,28.1,18.2,30.12,WNW,295,11.5,11.5,66,0.00,CLR,,0.00,0.0,WeatherDisplay:10.37,2013-03-20 04:35:00,
2013-03-19 23:40:00,28.0,18.5,30.12,West,273,15.0,15.0,67,0.00,CLR,,0.00,0.0,WeatherDisplay:10.37,2013-03-20 04:40:00,
2013-03-19 23:45:00,27.8,18.3,30.12,WNW,288,9.2,9.2,67,0.00,CLR,,0.00,0.0,WeatherDisplay:10.37,2013-03-20 04:45:00,
2013-03-19 23:50:00,27.6,18.1,30.12,NW,305,9.2,9.2,67,0.00,CLR,,0.00,0.0,WeatherDisplay:10.37,2013-03-20 04:50:00,
2013-03-19 23:55:00,27.3,18.1,30.12,WNW,282,14.0,14.0,68,0.00,CLR,,0.00,0.0,WeatherDisplay:10.37,2013-03-20 04:55:00,